sensor_id;sensor_type;location;lat;lon;timestamp;P1;durP1;ratioP1;P2;durP2;ratioP2
49834;SDS011;35729;52.090;13.162;2023-06-24T00:01:49;76.18;;;39.45;;
49834;SDS011;35729;52.090;13.162;2023-06-24T00:04:18;73.40;;;39.78;;
49834;SDS011;35729;52.090;13.162;2023-06-24T00:06:46;75.25;;;39.33;;
49834;SDS011;35729;52.090;13.162;2023-06-24T00:09:17;69.18;;;39.30;;
49834;SDS011;35729;52.090;13.162;2023-06-24T00:11:46;73.03;;;38.50;;
49834;SDS011;35729;52.090;13.162;2023-06-24T00:14:14;67.53;;;37.92;;
49834;SDS011;35729;52.090;13.162;2023-06-24T00:16:43;76.22;;;38.38;;
49834;SDS011;35729;52.090;13.162;2023-06-24T00:19:17;67.68;;;37.58;;
49834;SDS011;35729;52.090;13.162;2023-06-24T00:21:47;73.88;;;39.50;;
49834;SDS011;35729;52.090;13.162;2023-06-24T00:24:16;74.05;;;38.13;;
49834;SDS011;35729;52.090;13.162;2023-06-24T00:26:46;73.57;;;39.22;;
49834;SDS011;35729;52.090;13.162;2023-06-24T00:29:15;79.80;;;41.15;;
49834;SDS011;35729;52.090;13.162;2023-06-24T00:31:43;72.97;;;38.83;;
49834;SDS011;35729;52.090;13.162;2023-06-24T00:34:12;77.55;;;40.45;;
49834;SDS011;35729;52.090;13.162;2023-06-24T00:36:43;79.85;;;40.28;;
49834;SDS011;35729;52.090;13.162;2023-06-24T00:39:18;89.65;;;42.08;;
49834;SDS011;35729;52.090;13.162;2023-06-24T00:41:47;82.55;;;41.85;;
49834;SDS011;35729;52.090;13.162;2023-06-24T00:44:16;82.20;;;42.25;;
49834;SDS011;35729;52.090;13.162;2023-06-24T00:46:45;85.30;;;40.97;;
49834;SDS011;35729;52.090;13.162;2023-06-24T00:49:14;92.15;;;43.53;;
49834;SDS011;35729;52.090;13.162;2023-06-24T00:51:45;96.90;;;43.80;;
49834;SDS011;35729;52.090;13.162;2023-06-24T00:54:15;89.03;;;42.88;;
49834;SDS011;35729;52.090;13.162;2023-06-24T00:56:44;97.10;;;46.13;;
49834;SDS011;35729;52.090;13.162;2023-06-24T00:59:14;91.93;;;45.28;;
49834;SDS011;35729;52.090;13.162;2023-06-24T01:01:44;93.53;;;44.42;;
49834;SDS011;35729;52.090;13.162;2023-06-24T01:04:14;92.22;;;45.78;;
49834;SDS011;35729;52.090;13.162;2023-06-24T01:06:48;93.45;;;46.67;;
49834;SDS011;35729;52.090;13.162;2023-06-24T01:09:17;96.10;;;47.05;;
49834;SDS011;35729;52.090;13.162;2023-06-24T01:11:45;91.45;;;45.47;;
49834;SDS011;35729;52.090;13.162;2023-06-24T01:14:14;97.47;;;46.35;;
49834;SDS011;35729;52.090;13.162;2023-06-24T01:16:46;100.05;;;47.22;;
49834;SDS011;35729;52.090;13.162;2023-06-24T01:19:33;94.18;;;46.67;;
49834;SDS011;35729;52.090;13.162;2023-06-24T01:22:19;93.35;;;46.53;;
49834;SDS011;35729;52.090;13.162;2023-06-24T01:25:15;90.18;;;45.70;;
49834;SDS011;35729;52.090;13.162;2023-06-24T01:28:13;106.70;;;48.35;;
49834;SDS011;35729;52.090;13.162;2023-06-24T01:31:07;111.55;;;49.65;;
49834;SDS011;35729;52.090;13.162;2023-06-24T01:36:26;96.73;;;46.43;;
49834;SDS011;35729;52.090;13.162;2023-06-24T01:38:58;99.65;;;47.47;;
49834;SDS011;35729;52.090;13.162;2023-06-24T01:41:31;102.70;;;50.72;;
49834;SDS011;35729;52.090;13.162;2023-06-24T01:44:03;108.35;;;52.95;;
49834;SDS011;35729;52.090;13.162;2023-06-24T01:46:35;108.50;;;52.55;;
49834;SDS011;35729;52.090;13.162;2023-06-24T01:49:07;104.13;;;50.47;;
49834;SDS011;35729;52.090;13.162;2023-06-24T01:51:39;103.25;;;51.17;;
49834;SDS011;35729;52.090;13.162;2023-06-24T01:54:10;105.97;;;52.22;;
49834;SDS011;35729;52.090;13.162;2023-06-24T01:56:41;108.60;;;51.63;;
49834;SDS011;35729;52.090;13.162;2023-06-24T01:59:13;108.07;;;51.88;;
49834;SDS011;35729;52.090;13.162;2023-06-24T02:01:45;115.70;;;54.10;;
49834;SDS011;35729;52.090;13.162;2023-06-24T02:04:16;113.53;;;54.85;;
49834;SDS011;35729;52.090;13.162;2023-06-24T02:06:46;113.32;;;52.95;;
49834;SDS011;35729;52.090;13.162;2023-06-24T02:09:16;115.32;;;52.97;;
49834;SDS011;35729;52.090;13.162;2023-06-24T02:11:46;103.75;;;51.40;;
49834;SDS011;35729;52.090;13.162;2023-06-24T02:14:16;114.03;;;53.40;;
49834;SDS011;35729;52.090;13.162;2023-06-24T02:16:47;121.13;;;54.10;;
49834;SDS011;35729;52.090;13.162;2023-06-24T02:19:24;110.75;;;54.72;;
49834;SDS011;35729;52.090;13.162;2023-06-24T02:21:55;115.32;;;52.92;;
49834;SDS011;35729;52.090;13.162;2023-06-24T02:24:25;116.70;;;55.03;;
49834;SDS011;35729;52.090;13.162;2023-06-24T02:26:56;127.90;;;55.58;;
49834;SDS011;35729;52.090;13.162;2023-06-24T02:29:26;125.50;;;54.63;;
49834;SDS011;35729;52.090;13.162;2023-06-24T02:31:56;119.57;;;54.35;;
49834;SDS011;35729;52.090;13.162;2023-06-24T02:34:27;121.47;;;54.25;;
49834;SDS011;35729;52.090;13.162;2023-06-24T02:36:56;122.20;;;53.85;;
49834;SDS011;35729;52.090;13.162;2023-06-24T02:39:32;116.38;;;53.50;;
49834;SDS011;35729;52.090;13.162;2023-06-24T02:42:09;124.70;;;55.20;;
49834;SDS011;35729;52.090;13.162;2023-06-24T02:44:38;123.50;;;54.20;;
49834;SDS011;35729;52.090;13.162;2023-06-24T02:47:07;126.00;;;55.08;;
49834;SDS011;35729;52.090;13.162;2023-06-24T02:49:41;126.82;;;53.70;;
49834;SDS011;35729;52.090;13.162;2023-06-24T02:52:15;136.45;;;56.90;;
49834;SDS011;35729;52.090;13.162;2023-06-24T02:54:44;129.77;;;56.85;;
49834;SDS011;35729;52.090;13.162;2023-06-24T02:57:13;118.10;;;52.60;;
49834;SDS011;35729;52.090;13.162;2023-06-24T02:59:41;117.72;;;51.25;;
49834;SDS011;35729;52.090;13.162;2023-06-24T03:02:10;115.00;;;49.97;;
49834;SDS011;35729;52.090;13.162;2023-06-24T03:04:43;110.45;;;49.75;;
49834;SDS011;35729;52.090;13.162;2023-06-24T03:07:12;110.25;;;49.75;;
49834;SDS011;35729;52.090;13.162;2023-06-24T03:09:45;110.85;;;51.53;;
49834;SDS011;35729;52.090;13.162;2023-06-24T03:12:14;103.07;;;49.47;;
49834;SDS011;35729;52.090;13.162;2023-06-24T03:14:43;96.50;;;49.00;;
49834;SDS011;35729;52.090;13.162;2023-06-24T03:17:11;96.55;;;47.92;;
49834;SDS011;35729;52.090;13.162;2023-06-24T03:19:42;101.70;;;48.47;;
49834;SDS011;35729;52.090;13.162;2023-06-24T03:22:11;90.30;;;46.38;;
49834;SDS011;35729;52.090;13.162;2023-06-24T03:24:39;78.72;;;45.65;;
49834;SDS011;35729;52.090;13.162;2023-06-24T03:27:08;86.13;;;45.65;;
49834;SDS011;35729;52.090;13.162;2023-06-24T03:29:38;79.53;;;43.75;;
49834;SDS011;35729;52.090;13.162;2023-06-24T03:32:06;72.38;;;42.38;;
49834;SDS011;35729;52.090;13.162;2023-06-24T03:34:35;71.32;;;41.20;;
49834;SDS011;35729;52.090;13.162;2023-06-24T03:37:06;67.80;;;41.10;;
49834;SDS011;35729;52.090;13.162;2023-06-24T03:39:35;68.00;;;40.78;;
49834;SDS011;35729;52.090;13.162;2023-06-24T03:42:03;72.25;;;43.58;;
49834;SDS011;35729;52.090;13.162;2023-06-24T03:44:32;66.43;;;40.38;;
49834;SDS011;35729;52.090;13.162;2023-06-24T03:47:00;82.30;;;44.28;;
49834;SDS011;35729;52.090;13.162;2023-06-24T03:49:29;78.38;;;43.97;;
49834;SDS011;35729;52.090;13.162;2023-06-24T03:51:57;74.07;;;44.50;;
49834;SDS011;35729;52.090;13.162;2023-06-24T03:54:28;81.03;;;43.75;;
49834;SDS011;35729;52.090;13.162;2023-06-24T03:56:57;75.72;;;42.35;;
49834;SDS011;35729;52.090;13.162;2023-06-24T03:59:25;77.45;;;42.58;;
49834;SDS011;35729;52.090;13.162;2023-06-24T04:01:53;79.90;;;43.20;;
49834;SDS011;35729;52.090;13.162;2023-06-24T04:04:22;78.30;;;43.85;;
49834;SDS011;35729;52.090;13.162;2023-06-24T04:06:51;75.57;;;43.53;;
49834;SDS011;35729;52.090;13.162;2023-06-24T04:09:19;81.47;;;44.70;;
49834;SDS011;35729;52.090;13.162;2023-06-24T04:11:51;76.13;;;42.60;;
49834;SDS011;35729;52.090;13.162;2023-06-24T04:14:19;78.70;;;42.78;;
49834;SDS011;35729;52.090;13.162;2023-06-24T04:16:48;77.28;;;42.90;;
49834;SDS011;35729;52.090;13.162;2023-06-24T04:19:16;75.07;;;44.15;;
49834;SDS011;35729;52.090;13.162;2023-06-24T04:21:44;83.80;;;46.72;;
49834;SDS011;35729;52.090;13.162;2023-06-24T04:24:13;79.43;;;44.75;;
49834;SDS011;35729;52.090;13.162;2023-06-24T04:26:41;78.60;;;44.58;;
49834;SDS011;35729;52.090;13.162;2023-06-24T04:29:12;86.55;;;44.10;;
49834;SDS011;35729;52.090;13.162;2023-06-24T04:31:41;81.85;;;44.60;;
49834;SDS011;35729;52.090;13.162;2023-06-24T04:34:10;85.10;;;44.70;;
49834;SDS011;35729;52.090;13.162;2023-06-24T04:36:38;77.88;;;42.85;;
49834;SDS011;35729;52.090;13.162;2023-06-24T04:39:06;81.88;;;44.40;;
49834;SDS011;35729;52.090;13.162;2023-06-24T04:41:35;82.00;;;44.22;;
49834;SDS011;35729;52.090;13.162;2023-06-24T04:44:03;74.93;;;43.00;;
49834;SDS011;35729;52.090;13.162;2023-06-24T04:46:35;74.78;;;41.92;;
49834;SDS011;35729;52.090;13.162;2023-06-24T04:49:05;62.15;;;39.17;;
49834;SDS011;35729;52.090;13.162;2023-06-24T04:51:33;61.15;;;38.05;;
49834;SDS011;35729;52.090;13.162;2023-06-24T04:54:02;58.90;;;37.63;;
49834;SDS011;35729;52.090;13.162;2023-06-24T04:56:31;57.88;;;36.45;;
49834;SDS011;35729;52.090;13.162;2023-06-24T04:58:59;57.45;;;34.92;;
49834;SDS011;35729;52.090;13.162;2023-06-24T05:01:28;55.30;;;34.55;;
49834;SDS011;35729;52.090;13.162;2023-06-24T05:03:59;58.05;;;34.78;;
49834;SDS011;35729;52.090;13.162;2023-06-24T05:06:27;53.25;;;33.38;;
49834;SDS011;35729;52.090;13.162;2023-06-24T05:08:56;52.90;;;33.65;;
49834;SDS011;35729;52.090;13.162;2023-06-24T05:11:24;49.60;;;33.78;;
49834;SDS011;35729;52.090;13.162;2023-06-24T05:13:53;53.63;;;32.58;;
49834;SDS011;35729;52.090;13.162;2023-06-24T05:16:21;53.35;;;34.78;;
49834;SDS011;35729;52.090;13.162;2023-06-24T05:18:49;58.03;;;35.45;;
49834;SDS011;35729;52.090;13.162;2023-06-24T05:21:20;54.22;;;34.65;;
49834;SDS011;35729;52.090;13.162;2023-06-24T05:23:49;46.75;;;31.25;;
49834;SDS011;35729;52.090;13.162;2023-06-24T05:26:17;46.35;;;32.70;;
49834;SDS011;35729;52.090;13.162;2023-06-24T05:28:46;46.75;;;31.85;;
49834;SDS011;35729;52.090;13.162;2023-06-24T05:31:14;47.92;;;32.90;;
49834;SDS011;35729;52.090;13.162;2023-06-24T05:33:43;42.97;;;29.65;;
49834;SDS011;35729;52.090;13.162;2023-06-24T05:36:11;44.88;;;30.17;;
49834;SDS011;35729;52.090;13.162;2023-06-24T05:38:43;44.05;;;28.80;;
49834;SDS011;35729;52.090;13.162;2023-06-24T05:41:13;34.72;;;28.08;;
49834;SDS011;35729;52.090;13.162;2023-06-24T05:43:42;40.13;;;29.13;;
49834;SDS011;35729;52.090;13.162;2023-06-24T05:46:11;34.92;;;26.88;;
49834;SDS011;35729;52.090;13.162;2023-06-24T05:48:40;36.13;;;26.95;;
49834;SDS011;35729;52.090;13.162;2023-06-24T05:51:08;39.45;;;28.50;;
49834;SDS011;35729;52.090;13.162;2023-06-24T05:53:36;34.47;;;25.33;;
49834;SDS011;35729;52.090;13.162;2023-06-24T05:56:07;37.55;;;27.95;;
49834;SDS011;35729;52.090;13.162;2023-06-24T05:58:36;36.35;;;26.40;;
49834;SDS011;35729;52.090;13.162;2023-06-24T06:01:05;42.65;;;28.50;;
49834;SDS011;35729;52.090;13.162;2023-06-24T06:03:34;35.65;;;26.52;;
49834;SDS011;35729;52.090;13.162;2023-06-24T06:06:02;38.65;;;25.92;;
49834;SDS011;35729;52.090;13.162;2023-06-24T06:08:32;32.90;;;26.13;;
49834;SDS011;35729;52.090;13.162;2023-06-24T06:11:00;30.70;;;24.40;;
49834;SDS011;35729;52.090;13.162;2023-06-24T06:13:33;34.35;;;26.45;;
49834;SDS011;35729;52.090;13.162;2023-06-24T06:16:01;35.40;;;26.83;;
49834;SDS011;35729;52.090;13.162;2023-06-24T06:18:30;30.35;;;23.55;;
49834;SDS011;35729;52.090;13.162;2023-06-24T06:20:58;29.50;;;23.77;;
49834;SDS011;35729;52.090;13.162;2023-06-24T06:23:27;28.20;;;22.30;;
49834;SDS011;35729;52.090;13.162;2023-06-24T06:25:55;29.88;;;23.48;;
49834;SDS011;35729;52.090;13.162;2023-06-24T06:28:23;24.38;;;21.83;;
49834;SDS011;35729;52.090;13.162;2023-06-24T06:30:54;28.05;;;22.75;;
49834;SDS011;35729;52.090;13.162;2023-06-24T06:33:24;28.65;;;22.65;;
49834;SDS011;35729;52.090;13.162;2023-06-24T06:35:52;27.42;;;22.92;;
49834;SDS011;35729;52.090;13.162;2023-06-24T06:38:21;28.90;;;22.30;;
49834;SDS011;35729;52.090;13.162;2023-06-24T06:40:49;25.23;;;22.52;;
49834;SDS011;35729;52.090;13.162;2023-06-24T06:43:18;27.23;;;21.73;;
49834;SDS011;35729;52.090;13.162;2023-06-24T06:45:46;25.10;;;21.67;;
49834;SDS011;35729;52.090;13.162;2023-06-24T06:48:17;27.25;;;21.65;;
49834;SDS011;35729;52.090;13.162;2023-06-24T06:50:46;23.23;;;19.27;;
49834;SDS011;35729;52.090;13.162;2023-06-24T06:53:14;21.95;;;17.67;;
49834;SDS011;35729;52.090;13.162;2023-06-24T06:55:43;21.50;;;19.13;;
49834;SDS011;35729;52.090;13.162;2023-06-24T06:58:12;26.35;;;21.38;;
49834;SDS011;35729;52.090;13.162;2023-06-24T07:00:40;26.88;;;21.98;;
49834;SDS011;35729;52.090;13.162;2023-06-24T07:03:08;23.00;;;18.02;;
49834;SDS011;35729;52.090;13.162;2023-06-24T07:05:39;21.10;;;18.15;;
49834;SDS011;35729;52.090;13.162;2023-06-24T07:08:08;22.08;;;19.15;;
49834;SDS011;35729;52.090;13.162;2023-06-24T07:10:36;21.50;;;18.67;;
49834;SDS011;35729;52.090;13.162;2023-06-24T07:13:05;21.58;;;18.45;;
49834;SDS011;35729;52.090;13.162;2023-06-24T07:15:33;24.70;;;17.60;;
49834;SDS011;35729;52.090;13.162;2023-06-24T07:18:02;22.80;;;19.02;;
49834;SDS011;35729;52.090;13.162;2023-06-24T07:20:30;28.15;;;17.48;;
49834;SDS011;35729;52.090;13.162;2023-06-24T07:23:01;21.67;;;16.05;;
49834;SDS011;35729;52.090;13.162;2023-06-24T07:25:30;18.35;;;16.30;;
49834;SDS011;35729;52.090;13.162;2023-06-24T07:27:59;20.17;;;16.25;;
49834;SDS011;35729;52.090;13.162;2023-06-24T07:30:27;19.05;;;15.63;;
49834;SDS011;35729;52.090;13.162;2023-06-24T07:32:56;26.10;;;17.02;;
49834;SDS011;35729;52.090;13.162;2023-06-24T07:35:30;22.35;;;17.58;;
49834;SDS011;35729;52.090;13.162;2023-06-24T07:37:59;19.80;;;16.05;;
49834;SDS011;35729;52.090;13.162;2023-06-24T07:40:30;19.55;;;14.93;;
49834;SDS011;35729;52.090;13.162;2023-06-24T07:42:59;18.15;;;15.85;;
49834;SDS011;35729;52.090;13.162;2023-06-24T07:45:27;18.48;;;15.23;;
49834;SDS011;35729;52.090;13.162;2023-06-24T07:47:55;18.92;;;13.93;;
49834;SDS011;35729;52.090;13.162;2023-06-24T07:50:24;16.70;;;12.70;;
49834;SDS011;35729;52.090;13.162;2023-06-24T07:52:52;13.85;;;11.25;;
49834;SDS011;35729;52.090;13.162;2023-06-24T07:55:23;15.27;;;12.95;;
49834;SDS011;35729;52.090;13.162;2023-06-24T07:57:52;15.40;;;13.45;;
49834;SDS011;35729;52.090;13.162;2023-06-24T08:00:20;15.63;;;13.32;;
49834;SDS011;35729;52.090;13.162;2023-06-24T08:02:48;19.10;;;14.63;;
49834;SDS011;35729;52.090;13.162;2023-06-24T08:05:17;16.63;;;14.07;;
49834;SDS011;35729;52.090;13.162;2023-06-24T08:07:45;16.42;;;14.23;;
49834;SDS011;35729;52.090;13.162;2023-06-24T08:10:14;18.00;;;13.43;;
49834;SDS011;35729;52.090;13.162;2023-06-24T08:12:45;16.73;;;14.80;;
49834;SDS011;35729;52.090;13.162;2023-06-24T08:15:20;16.15;;;13.50;;
49834;SDS011;35729;52.090;13.162;2023-06-24T08:17:50;16.65;;;13.82;;
49834;SDS011;35729;52.090;13.162;2023-06-24T08:20:26;19.33;;;14.57;;
49834;SDS011;35729;52.090;13.162;2023-06-24T08:22:54;15.02;;;13.43;;
49834;SDS011;35729;52.090;13.162;2023-06-24T08:25:23;14.48;;;12.95;;
49834;SDS011;35729;52.090;13.162;2023-06-24T08:27:54;15.98;;;13.18;;
49834;SDS011;35729;52.090;13.162;2023-06-24T08:30:23;14.25;;;12.75;;
49834;SDS011;35729;52.090;13.162;2023-06-24T08:32:52;16.33;;;12.05;;
49834;SDS011;35729;52.090;13.162;2023-06-24T08:35:21;13.45;;;11.43;;
49834;SDS011;35729;52.090;13.162;2023-06-24T08:37:49;15.35;;;11.63;;
49834;SDS011;35729;52.090;13.162;2023-06-24T08:40:18;11.48;;;9.25;;
49834;SDS011;35729;52.090;13.162;2023-06-24T08:42:46;12.65;;;10.18;;
49834;SDS011;35729;52.090;13.162;2023-06-24T08:45:17;9.88;;;8.80;;
49834;SDS011;35729;52.090;13.162;2023-06-24T08:47:46;11.52;;;9.27;;
49834;SDS011;35729;52.090;13.162;2023-06-24T08:50:15;14.27;;;8.95;;
49834;SDS011;35729;52.090;13.162;2023-06-24T08:52:48;10.15;;;8.57;;
49834;SDS011;35729;52.090;13.162;2023-06-24T08:55:19;9.55;;;7.82;;
49834;SDS011;35729;52.090;13.162;2023-06-24T08:57:50;10.73;;;7.93;;
49834;SDS011;35729;52.090;13.162;2023-06-24T09:00:21;8.73;;;7.57;;
49834;SDS011;35729;52.090;13.162;2023-06-24T09:02:50;10.50;;;8.07;;
49834;SDS011;35729;52.090;13.162;2023-06-24T09:05:18;8.32;;;6.97;;
49834;SDS011;35729;52.090;13.162;2023-06-24T09:07:47;7.28;;;6.57;;
49834;SDS011;35729;52.090;13.162;2023-06-24T09:10:28;10.10;;;7.32;;
49834;SDS011;35729;52.090;13.162;2023-06-24T09:12:58;13.07;;;7.47;;
49834;SDS011;35729;52.090;13.162;2023-06-24T09:15:32;8.80;;;7.35;;
49834;SDS011;35729;52.090;13.162;2023-06-24T09:18:01;8.52;;;6.88;;
49834;SDS011;35729;52.090;13.162;2023-06-24T09:20:30;8.77;;;6.88;;
49834;SDS011;35729;52.090;13.162;2023-06-24T09:23:04;6.57;;;5.93;;
49834;SDS011;35729;52.090;13.162;2023-06-24T09:25:33;7.63;;;6.82;;
49834;SDS011;35729;52.090;13.162;2023-06-24T09:28:01;10.05;;;5.82;;
49834;SDS011;35729;52.090;13.162;2023-06-24T09:30:33;7.38;;;5.68;;
49834;SDS011;35729;52.090;13.162;2023-06-24T09:33:02;7.45;;;6.35;;
49834;SDS011;35729;52.090;13.162;2023-06-24T09:35:30;7.60;;;5.97;;
49834;SDS011;35729;52.090;13.162;2023-06-24T09:38:03;6.90;;;6.18;;
49834;SDS011;35729;52.090;13.162;2023-06-24T09:40:31;7.28;;;5.50;;
49834;SDS011;35729;52.090;13.162;2023-06-24T09:43:02;8.40;;;5.55;;
49834;SDS011;35729;52.090;13.162;2023-06-24T09:45:33;7.03;;;5.63;;
49834;SDS011;35729;52.090;13.162;2023-06-24T09:48:02;10.05;;;5.75;;
49834;SDS011;35729;52.090;13.162;2023-06-24T09:50:31;6.53;;;5.60;;
49834;SDS011;35729;52.090;13.162;2023-06-24T09:53:01;5.38;;;4.80;;
49834;SDS011;35729;52.090;13.162;2023-06-24T09:55:31;6.68;;;5.60;;
49834;SDS011;35729;52.090;13.162;2023-06-24T09:58:00;7.65;;;6.07;;
49834;SDS011;35729;52.090;13.162;2023-06-24T10:00:28;6.68;;;5.60;;
49834;SDS011;35729;52.090;13.162;2023-06-24T10:02:59;7.35;;;5.35;;
49834;SDS011;35729;52.090;13.162;2023-06-24T10:05:28;7.65;;;4.88;;
49834;SDS011;35729;52.090;13.162;2023-06-24T10:07:56;9.90;;;5.50;;
49834;SDS011;35729;52.090;13.162;2023-06-24T10:10:25;6.68;;;5.22;;
49834;SDS011;35729;52.090;13.162;2023-06-24T10:12:53;6.13;;;5.50;;
49834;SDS011;35729;52.090;13.162;2023-06-24T10:15:22;10.02;;;5.80;;
49834;SDS011;35729;52.090;13.162;2023-06-24T10:17:50;8.23;;;5.78;;
49834;SDS011;35729;52.090;13.162;2023-06-24T10:20:26;5.82;;;5.22;;
49834;SDS011;35729;52.090;13.162;2023-06-24T10:22:54;7.47;;;5.00;;
49834;SDS011;35729;52.090;13.162;2023-06-24T10:25:24;5.90;;;4.70;;
49834;SDS011;35729;52.090;13.162;2023-06-24T10:28:03;7.03;;;5.30;;
49834;SDS011;35729;52.090;13.162;2023-06-24T10:30:31;5.65;;;5.03;;
49834;SDS011;35729;52.090;13.162;2023-06-24T10:33:00;6.47;;;4.55;;
49834;SDS011;35729;52.090;13.162;2023-06-24T10:35:31;6.28;;;4.88;;
49834;SDS011;35729;52.090;13.162;2023-06-24T10:38:00;5.40;;;4.90;;
49834;SDS011;35729;52.090;13.162;2023-06-24T10:40:36;7.57;;;4.95;;
49834;SDS011;35729;52.090;13.162;2023-06-24T10:45:55;4.38;;;3.97;;
49834;SDS011;35729;52.090;13.162;2023-06-24T10:48:25;5.22;;;4.10;;
49834;SDS011;35729;52.090;13.162;2023-06-24T10:50:56;6.38;;;4.20;;
49834;SDS011;35729;52.090;13.162;2023-06-24T10:53:25;5.22;;;3.90;;
49834;SDS011;35729;52.090;13.162;2023-06-24T10:55:56;5.53;;;3.90;;
49834;SDS011;35729;52.090;13.162;2023-06-24T10:58:26;6.05;;;4.15;;
49834;SDS011;35729;52.090;13.162;2023-06-24T11:01:05;6.00;;;4.30;;
49834;SDS011;35729;52.090;13.162;2023-06-24T11:03:34;7.97;;;4.30;;
49834;SDS011;35729;52.090;13.162;2023-06-24T11:06:06;5.18;;;3.78;;
49834;SDS011;35729;52.090;13.162;2023-06-24T11:08:42;4.55;;;4.10;;
49834;SDS011;35729;52.090;13.162;2023-06-24T11:11:18;4.05;;;3.33;;
49834;SDS011;35729;52.090;13.162;2023-06-24T11:13:47;6.78;;;3.70;;
49834;SDS011;35729;52.090;13.162;2023-06-24T11:16:19;5.35;;;3.80;;
49834;SDS011;35729;52.090;13.162;2023-06-24T11:18:48;5.25;;;3.60;;
49834;SDS011;35729;52.090;13.162;2023-06-24T11:21:19;7.18;;;3.78;;
49834;SDS011;35729;52.090;13.162;2023-06-24T11:23:48;9.55;;;4.13;;
49834;SDS011;35729;52.090;13.162;2023-06-24T11:26:17;4.97;;;3.40;;
49834;SDS011;35729;52.090;13.162;2023-06-24T11:28:47;7.28;;;4.00;;
49834;SDS011;35729;52.090;13.162;2023-06-24T11:31:15;5.25;;;3.80;;
49834;SDS011;35729;52.090;13.162;2023-06-24T11:33:47;6.05;;;4.28;;
49834;SDS011;35729;52.090;13.162;2023-06-24T11:36:17;5.25;;;3.80;;
49834;SDS011;35729;52.090;13.162;2023-06-24T11:38:48;9.00;;;3.90;;
49834;SDS011;35729;52.090;13.162;2023-06-24T11:41:20;5.40;;;3.53;;
49834;SDS011;35729;52.090;13.162;2023-06-24T11:43:50;5.40;;;3.92;;
49834;SDS011;35729;52.090;13.162;2023-06-24T11:46:23;4.55;;;4.07;;
49834;SDS011;35729;52.090;13.162;2023-06-24T11:48:52;5.07;;;3.63;;
49834;SDS011;35729;52.090;13.162;2023-06-24T11:51:33;7.03;;;3.72;;
49834;SDS011;35729;52.090;13.162;2023-06-24T11:54:02;5.53;;;4.15;;
49834;SDS011;35729;52.090;13.162;2023-06-24T11:56:34;4.45;;;3.97;;
49834;SDS011;35729;52.090;13.162;2023-06-24T11:59:03;4.22;;;3.83;;
49834;SDS011;35729;52.090;13.162;2023-06-24T12:01:33;5.13;;;4.07;;
49834;SDS011;35729;52.090;13.162;2023-06-24T12:04:09;4.05;;;3.40;;
49834;SDS011;35729;52.090;13.162;2023-06-24T12:06:41;4.25;;;3.85;;
49834;SDS011;35729;52.090;13.162;2023-06-24T12:09:09;5.72;;;3.72;;
49834;SDS011;35729;52.090;13.162;2023-06-24T12:11:38;3.58;;;3.28;;
49834;SDS011;35729;52.090;13.162;2023-06-24T12:14:06;4.53;;;3.80;;
49834;SDS011;35729;52.090;13.162;2023-06-24T12:16:35;6.93;;;3.83;;
49834;SDS011;35729;52.090;13.162;2023-06-24T12:19:03;4.85;;;3.83;;
49834;SDS011;35729;52.090;13.162;2023-06-24T12:21:32;3.85;;;3.45;;
49834;SDS011;35729;52.090;13.162;2023-06-24T12:24:03;6.32;;;3.95;;
49834;SDS011;35729;52.090;13.162;2023-06-24T12:26:33;4.10;;;3.70;;
49834;SDS011;35729;52.090;13.162;2023-06-24T12:29:02;4.05;;;3.75;;
49834;SDS011;35729;52.090;13.162;2023-06-24T12:31:30;4.82;;;3.58;;
49834;SDS011;35729;52.090;13.162;2023-06-24T12:33:58;5.65;;;3.63;;
49834;SDS011;35729;52.090;13.162;2023-06-24T12:36:27;3.90;;;3.35;;
49834;SDS011;35729;52.090;13.162;2023-06-24T12:38:55;4.65;;;3.60;;
49834;SDS011;35729;52.090;13.162;2023-06-24T12:41:26;7.03;;;3.30;;
49834;SDS011;35729;52.090;13.162;2023-06-24T12:43:55;4.43;;;3.55;;
49834;SDS011;35729;52.090;13.162;2023-06-24T12:46:24;4.45;;;2.80;;
49834;SDS011;35729;52.090;13.162;2023-06-24T12:48:52;4.72;;;3.40;;
49834;SDS011;35729;52.090;13.162;2023-06-24T12:51:21;3.63;;;3.33;;
49834;SDS011;35729;52.090;13.162;2023-06-24T12:53:50;5.00;;;3.42;;
49834;SDS011;35729;52.090;13.162;2023-06-24T12:56:18;3.58;;;3.28;;
49834;SDS011;35729;52.090;13.162;2023-06-24T12:58:49;3.25;;;2.92;;
49834;SDS011;35729;52.090;13.162;2023-06-24T13:01:17;3.45;;;2.72;;
49834;SDS011;35729;52.090;13.162;2023-06-24T13:03:46;4.05;;;2.45;;
49834;SDS011;35729;52.090;13.162;2023-06-24T13:06:14;4.20;;;3.03;;
49834;SDS011;35729;52.090;13.162;2023-06-24T13:08:43;4.80;;;2.72;;
49834;SDS011;35729;52.090;13.162;2023-06-24T13:11:11;3.17;;;2.88;;
49834;SDS011;35729;52.090;13.162;2023-06-24T13:13:39;4.30;;;2.95;;
49834;SDS011;35729;52.090;13.162;2023-06-24T13:16:10;4.25;;;2.55;;
49834;SDS011;35729;52.090;13.162;2023-06-24T13:18:39;4.32;;;3.35;;
49834;SDS011;35729;52.090;13.162;2023-06-24T13:21:07;3.22;;;2.88;;
49834;SDS011;35729;52.090;13.162;2023-06-24T13:23:36;4.40;;;2.80;;
49834;SDS011;35729;52.090;13.162;2023-06-24T13:26:05;3.67;;;2.72;;
49834;SDS011;35729;52.090;13.162;2023-06-24T13:28:36;5.03;;;2.97;;
49834;SDS011;35729;52.090;13.162;2023-06-24T13:31:04;6.03;;;3.20;;
49834;SDS011;35729;52.090;13.162;2023-06-24T13:33:35;4.75;;;2.72;;
49834;SDS011;35729;52.090;13.162;2023-06-24T13:36:04;3.38;;;2.85;;
49834;SDS011;35729;52.090;13.162;2023-06-24T13:38:41;5.65;;;3.22;;
49834;SDS011;35729;52.090;13.162;2023-06-24T13:41:09;3.13;;;2.83;;
49834;SDS011;35729;52.090;13.162;2023-06-24T13:43:38;4.57;;;3.40;;
49834;SDS011;35729;52.090;13.162;2023-06-24T13:46:06;3.55;;;3.25;;
49834;SDS011;35729;52.090;13.162;2023-06-24T13:48:37;4.32;;;3.00;;
49834;SDS011;35729;52.090;13.162;2023-06-24T13:53:42;3.53;;;3.22;;
49834;SDS011;35729;52.090;13.162;2023-06-24T13:56:10;3.42;;;3.13;;
49834;SDS011;35729;52.090;13.162;2023-06-24T13:58:39;4.68;;;3.30;;
49834;SDS011;35729;52.090;13.162;2023-06-24T14:01:07;3.95;;;3.25;;
49834;SDS011;35729;52.090;13.162;2023-06-24T14:03:38;4.95;;;3.60;;
49834;SDS011;35729;52.090;13.162;2023-06-24T14:06:07;3.78;;;3.35;;
49834;SDS011;35729;52.090;13.162;2023-06-24T14:08:36;4.50;;;3.40;;
49834;SDS011;35729;52.090;13.162;2023-06-24T14:11:04;5.50;;;3.17;;
49834;SDS011;35729;52.090;13.162;2023-06-24T14:13:32;4.50;;;3.63;;
49834;SDS011;35729;52.090;13.162;2023-06-24T14:16:01;4.93;;;3.55;;
49834;SDS011;35729;52.090;13.162;2023-06-24T14:18:30;3.28;;;2.97;;
49834;SDS011;35729;52.090;13.162;2023-06-24T14:21:03;4.35;;;3.38;;
49834;SDS011;35729;52.090;13.162;2023-06-24T14:23:32;5.00;;;3.50;;
49834;SDS011;35729;52.090;13.162;2023-06-24T14:26:01;3.67;;;3.25;;
49834;SDS011;35729;52.090;13.162;2023-06-24T14:28:29;4.82;;;3.95;;
49834;SDS011;35729;52.090;13.162;2023-06-24T14:30:58;4.63;;;3.55;;
49834;SDS011;35729;52.090;13.162;2023-06-24T14:33:26;4.13;;;3.50;;
49834;SDS011;35729;52.090;13.162;2023-06-24T14:35:55;3.67;;;3.10;;
49834;SDS011;35729;52.090;13.162;2023-06-24T14:38:26;4.25;;;3.78;;
49834;SDS011;35729;52.090;13.162;2023-06-24T14:40:54;4.93;;;3.63;;
49834;SDS011;35729;52.090;13.162;2023-06-24T14:43:23;5.32;;;2.95;;